sensor_id;sensor_type;location;lat;lon;timestamp;noise_LAeq;noise_LA_min;noise_LA_max;noise_LA01;noise_LA95
71030;Laerm;63723;51.436;5.976;2023-05-10T00:00:01;56.15;54.51;59.68;;
71030;Laerm;63723;51.436;5.976;2023-05-10T00:00:15;56.05;54.50;58.01;;
71030;Laerm;63723;51.436;5.976;2023-05-10T00:00:25;55.85;53.77;57.80;;
71030;Laerm;63723;51.436;5.976;2023-05-10T00:00:35;55.88;54.12;57.54;;
71030;Laerm;63723;51.436;5.976;2023-05-10T00:00:46;55.86;54.11;57.50;;
71030;Laerm;63723;51.436;5.976;2023-05-10T00:00:56;55.95;53.78;58.05;;
71030;Laerm;63723;51.436;5.976;2023-05-10T00:01:07;55.91;53.50;57.26;;
71030;Laerm;63723;51.436;5.976;2023-05-10T00:01:17;55.90;54.07;57.95;;
71030;Laerm;63723;51.436;5.976;2023-05-10T00:01:27;55.99;53.79;57.44;;
71030;Laerm;63723;51.436;5.976;2023-05-10T00:01:38;55.91;53.77;57.60;;
71030;Laerm;63723;51.436;5.976;2023-05-10T00:01:48;55.62;53.78;59.80;;
71030;Laerm;63723;51.436;5.976;2023-05-10T00:01:58;55.75;53.78;57.40;;
71030;Laerm;63723;51.436;5.976;2023-05-10T00:02:08;56.07;54.55;57.40;;
71030;Laerm;63723;51.436;5.976;2023-05-10T00:02:19;55.82;54.11;58.75;;
71030;Laerm;63723;51.436;5.976;2023-05-10T00:02:29;55.85;54.25;57.56;;
71030;Laerm;63723;51.436;5.976;2023-05-10T00:02:39;55.86;53.67;57.44;;
71030;Laerm;63723;51.436;5.976;2023-05-10T00:02:50;55.62;53.84;57.26;;
71030;Laerm;63723;51.436;5.976;2023-05-10T00:03:00;55.56;53.70;56.96;;
71030;Laerm;63723;51.436;5.976;2023-05-10T00:03:11;55.73;54.06;57.84;;
71030;Laerm;63723;51.436;5.976;2023-05-10T00:03:21;55.88;53.99;57.43;;
71030;Laerm;63723;51.436;5.976;2023-05-10T00:03:31;55.63;53.78;57.07;;
71030;Laerm;63723;51.436;5.976;2023-05-10T00:03:42;56.06;54.18;57.61;;
71030;Laerm;63723;51.436;5.976;2023-05-10T00:03:52;55.93;53.99;57.79;;
71030;Laerm;63723;51.436;5.976;2023-05-10T00:04:02;56.05;54.08;57.44;;
71030;Laerm;63723;51.436;5.976;2023-05-10T00:04:13;55.94;53.67;57.48;;
71030;Laerm;63723;51.436;5.976;2023-05-10T00:04:23;55.53;53.80;57.24;;
71030;Laerm;63723;51.436;5.976;2023-05-10T00:04:37;55.44;53.71;57.25;;
71030;Laerm;63723;51.436;5.976;2023-05-10T00:04:47;55.40;53.88;56.83;;
71030;Laerm;63723;51.436;5.976;2023-05-10T00:04:58;55.45;53.24;57.09;;
71030;Laerm;63723;51.436;5.976;2023-05-10T00:05:08;55.66;53.88;57.40;;
71030;Laerm;63723;51.436;5.976;2023-05-10T00:05:19;55.67;53.94;57.29;;
71030;Laerm;63723;51.436;5.976;2023-05-10T00:05:29;55.84;53.40;57.92;;
71030;Laerm;63723;51.436;5.976;2023-05-10T00:05:39;55.97;54.27;57.35;;
71030;Laerm;63723;51.436;5.976;2023-05-10T00:05:50;56.24;54.57;57.99;;
71030;Laerm;63723;51.436;5.976;2023-05-10T00:06:00;56.07;54.57;57.55;;
71030;Laerm;63723;51.436;5.976;2023-05-10T00:06:10;56.07;54.21;57.32;;
71030;Laerm;63723;51.436;5.976;2023-05-10T00:06:21;56.15;54.42;58.04;;
71030;Laerm;63723;51.436;5.976;2023-05-10T00:06:31;56.09;54.16;57.55;;
71030;Laerm;63723;51.436;5.976;2023-05-10T00:06:41;55.92;54.18;57.35;;
71030;Laerm;63723;51.436;5.976;2023-05-10T00:06:52;55.71;54.28;57.20;;
71030;Laerm;63723;51.436;5.976;2023-05-10T00:07:02;55.76;53.98;57.27;;
71030;Laerm;63723;51.436;5.976;2023-05-10T00:07:12;55.79;53.82;57.25;;
71030;Laerm;63723;51.436;5.976;2023-05-10T00:07:23;55.64;53.93;57.18;;
71030;Laerm;63723;51.436;5.976;2023-05-10T00:07:33;55.01;53.51;56.31;;
71030;Laerm;63723;51.436;5.976;2023-05-10T00:07:43;55.13;53.31;56.70;;
71030;Laerm;63723;51.436;5.976;2023-05-10T00:07:54;55.07;53.37;56.71;;
71030;Laerm;63723;51.436;5.976;2023-05-10T00:08:05;55.05;53.55;56.73;;
71030;Laerm;63723;51.436;5.976;2023-05-10T00:08:15;54.99;52.65;59.43;;
71030;Laerm;63723;51.436;5.976;2023-05-10T00:08:25;54.85;52.99;56.42;;
71030;Laerm;63723;51.436;5.976;2023-05-10T00:08:35;55.00;53.37;56.61;;
71030;Laerm;63723;51.436;5.976;2023-05-10T00:08:46;55.07;53.56;56.75;;
71030;Laerm;63723;51.436;5.976;2023-05-10T00:08:56;55.00;53.37;56.58;;
71030;Laerm;63723;51.436;5.976;2023-05-10T00:09:06;54.96;53.40;56.53;;
71030;Laerm;63723;51.436;5.976;2023-05-10T00:09:17;54.99;53.25;56.61;;
71030;Laerm;63723;51.436;5.976;2023-05-10T00:09:27;55.39;53.70;56.86;;
71030;Laerm;63723;51.436;5.976;2023-05-10T00:09:37;55.22;53.76;56.71;;
71030;Laerm;63723;51.436;5.976;2023-05-10T00:09:47;55.40;53.85;56.99;;
71030;Laerm;63723;51.436;5.976;2023-05-10T00:09:58;55.17;53.17;56.86;;
71030;Laerm;63723;51.436;5.976;2023-05-10T00:10:08;55.23;53.42;57.15;;
71030;Laerm;63723;51.436;5.976;2023-05-10T00:10:18;55.46;53.85;56.69;;
71030;Laerm;63723;51.436;5.976;2023-05-10T00:10:29;55.35;53.94;56.43;;
71030;Laerm;63723;51.436;5.976;2023-05-10T00:10:39;55.53;54.14;56.68;;
71030;Laerm;63723;51.436;5.976;2023-05-10T00:10:50;55.63;54.37;56.84;;
71030;Laerm;63723;51.436;5.976;2023-05-10T00:11:00;55.63;54.52;56.66;;
71030;Laerm;63723;51.436;5.976;2023-05-10T00:11:10;55.03;53.06;59.22;;
71030;Laerm;63723;51.436;5.976;2023-05-10T00:11:21;54.45;52.94;55.68;;
71030;Laerm;63723;51.436;5.976;2023-05-10T00:11:31;54.60;52.88;56.06;;
71030;Laerm;63723;51.436;5.976;2023-05-10T00:11:41;54.87;53.19;56.34;;
71030;Laerm;63723;51.436;5.976;2023-05-10T00:11:52;55.00;53.11;56.70;;
71030;Laerm;63723;51.436;5.976;2023-05-10T00:12:02;54.94;53.24;56.29;;
71030;Laerm;63723;51.436;5.976;2023-05-10T00:12:12;54.99;53.17;56.43;;
71030;Laerm;63723;51.436;5.976;2023-05-10T00:12:22;55.05;53.07;56.82;;
71030;Laerm;63723;51.436;5.976;2023-05-10T00:12:33;54.88;53.36;56.21;;
71030;Laerm;63723;51.436;5.976;2023-05-10T00:12:43;55.28;53.71;56.62;;
71030;Laerm;63723;51.436;5.976;2023-05-10T00:12:53;55.32;53.70;56.72;;
71030;Laerm;63723;51.436;5.976;2023-05-10T00:13:03;55.45;54.18;56.84;;
71030;Laerm;63723;51.436;5.976;2023-05-10T00:13:14;54.93;53.02;56.87;;
71030;Laerm;63723;51.436;5.976;2023-05-10T00:13:24;54.68;52.94;58.82;;
71030;Laerm;63723;51.436;5.976;2023-05-10T00:13:35;54.66;53.33;56.55;;
71030;Laerm;63723;51.436;5.976;2023-05-10T00:13:45;54.73;53.17;56.34;;
71030;Laerm;63723;51.436;5.976;2023-05-10T00:13:55;55.04;53.60;56.35;;
71030;Laerm;63723;51.436;5.976;2023-05-10T00:14:05;55.02;53.51;56.77;;
71030;Laerm;63723;51.436;5.976;2023-05-10T00:14:16;55.02;53.54;56.12;;
71030;Laerm;63723;51.436;5.976;2023-05-10T00:14:26;54.93;53.27;56.60;;
71030;Laerm;63723;51.436;5.976;2023-05-10T00:14:37;55.11;53.35;56.44;;
71030;Laerm;63723;51.436;5.976;2023-05-10T00:14:47;54.80;52.83;56.42;;
71030;Laerm;63723;51.436;5.976;2023-05-10T00:14:57;55.03;53.60;56.37;;
71030;Laerm;63723;51.436;5.976;2023-05-10T00:15:08;54.85;53.12;56.54;;
71030;Laerm;63723;51.436;5.976;2023-05-10T00:15:18;55.20;52.69;57.59;;
71030;Laerm;63723;51.436;5.976;2023-05-10T00:15:29;54.83;53.53;55.96;;
71030;Laerm;63723;51.436;5.976;2023-05-10T00:15:40;54.96;53.32;56.70;;
71030;Laerm;63723;51.436;5.976;2023-05-10T00:15:50;54.88;53.07;56.37;;
71030;Laerm;63723;51.436;5.976;2023-05-10T00:16:01;54.69;53.32;56.19;;
71030;Laerm;63723;51.436;5.976;2023-05-10T00:16:11;54.72;53.02;56.18;;
71030;Laerm;63723;51.436;5.976;2023-05-10T00:16:23;54.70;53.09;58.11;;
71030;Laerm;63723;51.436;5.976;2023-05-10T00:16:33;54.77;52.98;56.44;;
71030;Laerm;63723;51.436;5.976;2023-05-10T00:16:43;54.78;53.09;56.04;;
71030;Laerm;63723;51.436;5.976;2023-05-10T00:16:53;54.73;53.03;56.41;;
71030;Laerm;63723;51.436;5.976;2023-05-10T00:17:04;54.55;52.51;56.34;;
71030;Laerm;63723;51.436;5.976;2023-05-10T00:17:14;54.63;52.84;56.13;;
71030;Laerm;63723;51.436;5.976;2023-05-10T00:17:24;55.09;51.88;57.64;;
71030;Laerm;63723;51.436;5.976;2023-05-10T00:17:34;55.09;53.10;56.59;;
71030;Laerm;63723;51.436;5.976;2023-05-10T00:17:45;54.87;53.19;56.27;;
71030;Laerm;63723;51.436;5.976;2023-05-10T00:17:55;54.67;52.69;56.44;;
71030;Laerm;63723;51.436;5.976;2023-05-10T00:18:05;54.72;53.16;59.36;;
71030;Laerm;63723;51.436;5.976;2023-05-10T00:18:16;55.01;53.11;56.71;;
71030;Laerm;63723;51.436;5.976;2023-05-10T00:18:26;55.14;53.72;56.55;;
71030;Laerm;63723;51.436;5.976;2023-05-10T00:18:36;54.74;52.91;56.56;;
71030;Laerm;63723;51.436;5.976;2023-05-10T00:18:46;54.67;53.19;56.30;;
71030;Laerm;63723;51.436;5.976;2023-05-10T00:18:57;54.54;52.93;56.06;;
71030;Laerm;63723;51.436;5.976;2023-05-10T00:19:07;54.51;53.07;56.13;;
71030;Laerm;63723;51.436;5.976;2023-05-10T00:19:17;54.59;52.79;56.34;;
71030;Laerm;63723;51.436;5.976;2023-05-10T00:19:27;54.71;52.46;58.19;;
71030;Laerm;63723;51.436;5.976;2023-05-10T00:19:38;54.59;52.86;56.12;;
71030;Laerm;63723;51.436;5.976;2023-05-10T00:19:48;54.56;53.12;55.71;;
71030;Laerm;63723;51.436;5.976;2023-05-10T00:19:58;54.59;52.29;56.40;;
71030;Laerm;63723;51.436;5.976;2023-05-10T00:20:09;54.57;53.07;55.96;;
71030;Laerm;63723;51.436;5.976;2023-05-10T00:20:19;54.63;53.39;56.12;;
71030;Laerm;63723;51.436;5.976;2023-05-10T00:20:30;54.62;52.94;56.73;;
71030;Laerm;63723;51.436;5.976;2023-05-10T00:20:40;54.51;53.01;55.99;;
71030;Laerm;63723;51.436;5.976;2023-05-10T00:20:50;54.67;52.77;56.60;;
71030;Laerm;63723;51.436;5.976;2023-05-10T00:21:01;54.96;52.81;56.85;;
71030;Laerm;63723;51.436;5.976;2023-05-10T00:21:11;55.04;53.30;56.78;;
71030;Laerm;63723;51.436;5.976;2023-05-10T00:21:21;55.06;53.39;56.97;;
71030;Laerm;63723;51.436;5.976;2023-05-10T00:21:32;55.10;53.43;56.81;;
71030;Laerm;63723;51.436;5.976;2023-05-10T00:21:43;55.27;53.33;62.66;;
71030;Laerm;63723;51.436;5.976;2023-05-10T00:21:54;55.53;53.73;56.93;;
71030;Laerm;63723;51.436;5.976;2023-05-10T00:22:04;55.27;53.68;57.20;;
71030;Laerm;63723;51.436;5.976;2023-05-10T00:22:14;55.18;52.48;56.80;;
71030;Laerm;63723;51.436;5.976;2023-05-10T00:22:24;55.15;53.32;57.00;;
71030;Laerm;63723;51.436;5.976;2023-05-10T00:22:35;55.17;53.39;57.13;;
71030;Laerm;63723;51.436;5.976;2023-05-10T00:22:45;55.14;53.72;56.77;;
71030;Laerm;63723;51.436;5.976;2023-05-10T00:22:55;55.16;53.38;56.46;;
71030;Laerm;63723;51.436;5.976;2023-05-10T00:23:05;55.27;53.45;57.27;;
71030;Laerm;63723;51.436;5.976;2023-05-10T00:23:16;55.34;53.75;56.73;;
71030;Laerm;63723;51.436;5.976;2023-05-10T00:23:26;55.23;53.79;56.74;;
71030;Laerm;63723;51.436;5.976;2023-05-10T00:23:36;55.41;53.64;57.01;;
71030;Laerm;63723;51.436;5.976;2023-05-10T00:23:47;55.63;54.05;57.90;;
71030;Laerm;63723;51.436;5.976;2023-05-10T00:23:57;55.57;54.27;57.57;;
71030;Laerm;63723;51.436;5.976;2023-05-10T00:24:08;55.54;53.73;57.56;;
71030;Laerm;63723;51.436;5.976;2023-05-10T00:24:18;55.30;53.26;57.21;;
71030;Laerm;63723;51.436;5.976;2023-05-10T00:24:28;54.98;53.10;56.88;;
71030;Laerm;63723;51.436;5.976;2023-05-10T00:24:38;54.86;53.09;56.77;;
71030;Laerm;63723;51.436;5.976;2023-05-10T00:24:49;54.93;52.91;56.53;;
71030;Laerm;63723;51.436;5.976;2023-05-10T00:24:59;54.90;53.02;56.73;;
71030;Laerm;63723;51.436;5.976;2023-05-10T00:25:09;55.13;53.40;57.01;;
71030;Laerm;63723;51.436;5.976;2023-05-10T00:25:20;55.14;52.25;57.08;;
71030;Laerm;63723;51.436;5.976;2023-05-10T00:25:31;55.01;53.55;56.51;;
71030;Laerm;63723;51.436;5.976;2023-05-10T00:25:41;54.90;53.03;57.96;;
71030;Laerm;63723;51.436;5.976;2023-05-10T00:25:52;54.98;53.13;59.70;;
71030;Laerm;63723;51.436;5.976;2023-05-10T00:26:02;54.82;52.76;56.65;;
71030;Laerm;63723;51.436;5.976;2023-05-10T00:26:12;55.12;53.31;56.99;;
71030;Laerm;63723;51.436;5.976;2023-05-10T00:26:23;55.03;53.12;56.51;;
71030;Laerm;63723;51.436;5.976;2023-05-10T00:26:33;54.88;53.28;56.64;;
71030;Laerm;63723;51.436;5.976;2023-05-10T00:26:43;55.00;53.20;56.49;;
71030;Laerm;63723;51.436;5.976;2023-05-10T00:26:53;55.36;53.50;58.98;;
71030;Laerm;63723;51.436;5.976;2023-05-10T00:27:04;55.24;53.75;56.63;;
71030;Laerm;63723;51.436;5.976;2023-05-10T00:27:14;55.37;53.46;56.86;;
71030;Laerm;63723;51.436;5.976;2023-05-10T00:27:24;55.70;53.86;57.13;;
71030;Laerm;63723;51.436;5.976;2023-05-10T00:27:35;55.37;53.56;56.87;;
71030;Laerm;63723;51.436;5.976;2023-05-10T00:27:45;55.40;53.52;58.57;;
71030;Laerm;63723;51.436;5.976;2023-05-10T00:27:55;55.64;54.07;56.87;;
71030;Laerm;63723;51.436;5.976;2023-05-10T00:28:07;55.48;53.80;57.11;;
71030;Laerm;63723;51.436;5.976;2023-05-10T00:28:17;55.48;53.96;56.80;;
71030;Laerm;63723;51.436;5.976;2023-05-10T00:28:27;55.20;53.77;56.99;;
71030;Laerm;63723;51.436;5.976;2023-05-10T00:28:38;55.33;53.47;56.45;;
71030;Laerm;63723;51.436;5.976;2023-05-10T00:28:48;55.34;53.61;56.95;;
71030;Laerm;63723;51.436;5.976;2023-05-10T00:28:59;55.25;53.40;56.96;;
71030;Laerm;63723;51.436;5.976;2023-05-10T00:29:09;54.91;53.09;56.42;;
71030;Laerm;63723;51.436;5.976;2023-05-10T00:29:20;54.98;53.42;57.26;;
71030;Laerm;63723;51.436;5.976;2023-05-10T00:29:30;54.93;53.38;56.80;;
71030;Laerm;63723;51.436;5.976;2023-05-10T00:29:41;55.10;53.43;57.03;;
71030;Laerm;63723;51.436;5.976;2023-05-10T00:29:52;54.90;53.22;58.52;;
71030;Laerm;63723;51.436;5.976;2023-05-10T00:30:02;54.98;53.10;56.72;;
71030;Laerm;63723;51.436;5.976;2023-05-10T00:30:12;54.97;53.11;56.46;;
71030;Laerm;63723;51.436;5.976;2023-05-10T00:30:22;55.33;53.48;57.03;;
71030;Laerm;63723;51.436;5.976;2023-05-10T00:30:33;54.82;52.90;56.95;;
71030;Laerm;63723;51.436;5.976;2023-05-10T00:30:43;54.84;53.21;56.27;;
71030;Laerm;63723;51.436;5.976;2023-05-10T00:30:53;54.89;53.21;56.40;;
71030;Laerm;63723;51.436;5.976;2023-05-10T00:31:04;54.98;53.52;56.48;;
71030;Laerm;63723;51.436;5.976;2023-05-10T00:31:14;55.12;53.76;56.51;;
71030;Laerm;63723;51.436;5.976;2023-05-10T00:31:24;54.90;53.39;56.17;;
71030;Laerm;63723;51.436;5.976;2023-05-10T00:31:34;54.56;53.03;55.91;;
71030;Laerm;63723;51.436;5.976;2023-05-10T00:31:45;54.62;53.02;56.13;;
71030;Laerm;63723;51.436;5.976;2023-05-10T00:31:55;54.60;52.97;55.84;;
71030;Laerm;63723;51.436;5.976;2023-05-10T00:32:06;54.56;52.67;56.02;;
71030;Laerm;63723;51.436;5.976;2023-05-10T00:32:16;54.61;52.63;56.29;;
71030;Laerm;63723;51.436;5.976;2023-05-10T00:32:26;54.52;53.31;55.71;;
71030;Laerm;63723;51.436;5.976;2023-05-10T00:32:37;54.52;53.24;56.10;;
71030;Laerm;63723;51.436;5.976;2023-05-10T00:32:47;54.68;53.24;57.37;;
71030;Laerm;63723;51.436;5.976;2023-05-10T00:32:59;54.66;53.30;55.77;;
71030;Laerm;63723;51.436;5.976;2023-05-10T00:33:10;54.72;53.50;56.32;;
71030;Laerm;63723;51.436;5.976;2023-05-10T00:33:21;54.56;53.24;55.99;;
71030;Laerm;63723;51.436;5.976;2023-05-10T00:33:31;54.68;53.21;55.90;;
71030;Laerm;63723;51.436;5.976;2023-05-10T00:33:42;54.97;53.29;56.30;;
71030;Laerm;63723;51.436;5.976;2023-05-10T00:33:52;55.24;53.76;56.45;;
71030;Laerm;63723;51.436;5.976;2023-05-10T00:34:02;55.26;53.79;56.60;;
71030;Laerm;63723;51.436;5.976;2023-05-10T00:34:13;55.03;53.60;56.16;;
71030;Laerm;63723;51.436;5.976;2023-05-10T00:34:23;54.76;53.05;56.01;;
71030;Laerm;63723;51.436;5.976;2023-05-10T00:34:34;54.38;53.17;55.59;;
71030;Laerm;63723;51.436;5.976;2023-05-10T00:34:44;54.31;53.03;55.82;;
71030;Laerm;63723;51.436;5.976;2023-05-10T00:34:55;54.28;53.01;55.36;;
71030;Laerm;63723;51.436;5.976;2023-05-10T00:35:05;54.27;52.78;55.40;;
71030;Laerm;63723;51.436;5.976;2023-05-10T00:35:15;54.32;52.93;55.61;;
71030;Laerm;63723;51.436;5.976;2023-05-10T00:35:26;54.27;52.85;55.65;;
71030;Laerm;63723;51.436;5.976;2023-05-10T00:35:36;54.33;52.99;55.70;;
71030;Laerm;63723;51.436;5.976;2023-05-10T00:35:47;54.39;52.81;56.18;;
71030;Laerm;63723;51.436;5.976;2023-05-10T00:35:58;54.35;52.63;55.84;;
71030;Laerm;63723;51.436;5.976;2023-05-10T00:36:08;54.50;53.04;56.09;;
71030;Laerm;63723;51.436;5.976;2023-05-10T00:36:19;54.59;53.00;55.90;;
71030;Laerm;63723;51.436;5.976;2023-05-10T00:36:29;54.52;53.30;55.96;;
71030;Laerm;63723;51.436;5.976;2023-05-10T00:36:39;54.58;53.05;55.86;;
71030;Laerm;63723;51.436;5.976;2023-05-10T00:36:49;54.45;53.00;55.57;;
71030;Laerm;63723;51.436;5.976;2023-05-10T00:37:00;54.24;52.90;55.39;;
71030;Laerm;63723;51.436;5.976;2023-05-10T00:37:10;54.54;52.96;55.89;;
71030;Laerm;63723;51.436;5.976;2023-05-10T00:37:20;54.70;53.31;56.49;;
71030;Laerm;63723;51.436;5.976;2023-05-10T00:37:31;54.55;53.06;55.63;;
71030;Laerm;63723;51.436;5.976;2023-05-10T00:37:41;54.44;53.23;55.74;;
71030;Laerm;63723;51.436;5.976;2023-05-10T00:37:51;54.13;52.72;56.84;;
71030;Laerm;63723;51.436;5.976;2023-05-10T00:38:02;54.35;52.97;55.51;;
71030;Laerm;63723;51.436;5.976;2023-05-10T00:38:12;54.42;53.06;55.77;;
71030;Laerm;63723;51.436;5.976;2023-05-10T00:38:22;54.47;53.04;56.14;;
71030;Laerm;63723;51.436;5.976;2023-05-10T00:38:33;54.42;52.91;55.71;;
71030;Laerm;63723;51.436;5.976;2023-05-10T00:38:43;54.39;53.00;55.64;;
71030;Laerm;63723;51.436;5.976;2023-05-10T00:38:53;54.34;52.86;55.55;;
71030;Laerm;63723;51.436;5.976;2023-05-10T00:39:03;54.38;52.56;55.82;;
71030;Laerm;63723;51.436;5.976;2023-05-10T00:39:14;54.21;52.47;55.77;;
71030;Laerm;63723;51.436;5.976;2023-05-10T00:39:24;54.02;52.26;55.35;;
71030;Laerm;63723;51.436;5.976;2023-05-10T00:39:36;54.13;52.77;55.36;;
71030;Laerm;63723;51.436;5.976;2023-05-10T00:39:46;54.03;52.74;55.67;;
71030;Laerm;63723;51.436;5.976;2023-05-10T00:39:57;54.01;52.22;55.28;;
71030;Laerm;63723;51.436;5.976;2023-05-10T00:40:07;53.92;52.28;54.98;;
71030;Laerm;63723;51.436;5.976;2023-05-10T00:40:17;54.01;52.56;55.53;;
71030;Laerm;63723;51.436;5.976;2023-05-10T00:40:28;54.00;52.28;55.37;;
71030;Laerm;63723;51.436;5.976;2023-05-10T00:40:38;54.11;52.63;55.35;;
71030;Laerm;63723;51.436;5.976;2023-05-10T00:40:48;54.02;52.51;55.20;;
71030;Laerm;63723;51.436;5.976;2023-05-10T00:40:59;54.05;52.68;55.49;;
71030;Laerm;63723;51.436;5.976;2023-05-10T00:41:09;54.06;52.65;55.17;;
71030;Laerm;63723;51.436;5.976;2023-05-10T00:41:20;54.04;52.42;55.29;;
71030;Laerm;63723;51.436;5.976;2023-05-10T00:41:31;54.39;52.91;55.82;;
71030;Laerm;63723;51.436;5.976;2023-05-10T00:41:42;54.66;53.30;55.97;;
71030;Laerm;63723;51.436;5.976;2023-05-10T00:41:52;54.57;52.59;56.23;;
71030;Laerm;63723;51.436;5.976;2023-05-10T00:42:03;54.42;53.22;56.15;;
71030;Laerm;63723;51.436;5.976;2023-05-10T00:42:14;54.45;53.17;55.76;;
71030;Laerm;63723;51.436;5.976;2023-05-10T00:42:24;54.29;52.64;55.63;;
71030;Laerm;63723;51.436;5.976;2023-05-10T00:42:35;54.14;52.85;55.40;;
71030;Laerm;63723;51.436;5.976;2023-05-10T00:42:45;54.22;52.66;55.36;;
71030;Laerm;63723;51.436;5.976;2023-05-10T00:42:55;54.08;52.42;55.24;;
71030;Laerm;63723;51.436;5.976;2023-05-10T00:43:06;54.24;52.87;55.39;;
71030;Laerm;63723;51.436;5.976;2023-05-10T00:43:16;54.30;52.87;57.71;;
71030;Laerm;63723;51.436;5.976;2023-05-10T00:43:27;54.19;52.62;55.22;;
71030;Laerm;63723;51.436;5.976;2023-05-10T00:43:37;54.11;52.43;55.28;;
71030;Laerm;63723;51.436;5.976;2023-05-10T00:43:47;53.97;52.49;55.32;;
71030;Laerm;63723;51.436;5.976;2023-05-10T00:43:58;53.88;52.35;55.33;;
71030;Laerm;63723;51.436;5.976;2023-05-10T00:44:08;53.99;52.54;57.64;;
71030;Laerm;63723;51.436;5.976;2023-05-10T00:44:19;53.96;52.55;55.33;;
71030;Laerm;63723;51.436;5.976;2023-05-10T00:44:29;53.81;52.03;56.10;;
71030;Laerm;63723;51.436;5.976;2023-05-10T00:44:40;53.66;51.92;55.02;;
71030;Laerm;63723;51.436;5.976;2023-05-10T00:44:51;53.80;52.27;55.31;;
71030;Laerm;63723;51.436;5.976;2023-05-10T00:45:01;53.71;52.30;55.38;;
71030;Laerm;63723;51.436;5.976;2023-05-10T00:45:11;53.79;52.22;55.36;;
71030;Laerm;63723;51.436;5.976;2023-05-10T00:45:22;53.79;52.56;55.28;;
71030;Laerm;63723;51.436;5.976;2023-05-10T00:45:32;54.31;52.77;55.86;;
71030;Laerm;63723;51.436;5.976;2023-05-10T00:45:43;54.34;52.77;55.83;;
71030;Laerm;63723;51.436;5.976;2023-05-10T00:45:53;54.39;52.93;55.54;;
71030;Laerm;63723;51.436;5.976;2023-05-10T00:46:04;54.35;52.96;55.68;;
71030;Laerm;63723;51.436;5.976;2023-05-10T00:46:14;54.30;52.85;55.80;;
71030;Laerm;63723;51.436;5.976;2023-05-10T00:46:25;53.91;52.49;55.07;;
71030;Laerm;63723;51.436;5.976;2023-05-10T00:46:36;53.92;52.42;55.23;;
71030;Laerm;63723;51.436;5.976;2023-05-10T00:46:49;53.86;52.07;55.48;;
71030;Laerm;63723;51.436;5.976;2023-05-10T00:46:59;53.93;52.74;55.29;;
71030;Laerm;63723;51.436;5.976;2023-05-10T00:47:09;53.95;52.30;55.76;;
71030;Laerm;63723;51.436;5.976;2023-05-10T00:47:20;53.96;52.62;58.88;;
71030;Laerm;63723;51.436;5.976;2023-05-10T00:47:31;54.05;52.77;55.58;;
71030;Laerm;63723;51.436;5.976;2023-05-10T00:47:42;53.81;52.31;55.16;;
71030;Laerm;63723;51.436;5.976;2023-05-10T00:47:52;53.60;52.30;54.94;;
71030;Laerm;63723;51.436;5.976;2023-05-10T00:48:05;53.80;52.25;55.10;;
71030;Laerm;63723;51.436;5.976;2023-05-10T00:48:15;53.74;52.45;55.25;;
71030;Laerm;63723;51.436;5.976;2023-05-10T00:48:26;53.71;52.24;56.39;;
71030;Laerm;63723;51.436;5.976;2023-05-10T00:48:36;53.51;51.55;54.65;;
71030;Laerm;63723;51.436;5.976;2023-05-10T00:48:46;53.75;52.36;55.21;;
71030;Laerm;63723;51.436;5.976;2023-05-10T00:48:57;53.82;52.14;54.95;;
71030;Laerm;63723;51.436;5.976;2023-05-10T00:49:07;54.29;52.44;55.61;;
71030;Laerm;63723;51.436;5.976;2023-05-10T00:49:17;54.13;52.74;55.61;;
71030;Laerm;63723;51.436;5.976;2023-05-10T00:49:28;54.22;52.64;55.45;;
71030;Laerm;63723;51.436;5.976;2023-05-10T00:49:39;54.27;53.00;55.41;;
71030;Laerm;63723;51.436;5.976;2023-05-10T00:49:50;54.22;53.00;56.15;;
71030;Laerm;63723;51.436;5.976;2023-05-10T00:50:01;54.25;52.39;57.14;;
71030;Laerm;63723;51.436;5.976;2023-05-10T00:50:12;54.00;52.77;55.35;;
71030;Laerm;63723;51.436;5.976;2023-05-10T00:50:23;53.97;52.48;55.24;;
71030;Laerm;63723;51.436;5.976;2023-05-10T00:50:33;54.03;52.48;55.48;;
71030;Laerm;63723;51.436;5.976;2023-05-10T00:50:43;53.95;52.55;55.39;;
71030;Laerm;63723;51.436;5.976;2023-05-10T00:50:54;53.93;52.62;55.21;;
71030;Laerm;63723;51.436;5.976;2023-05-10T00:51:05;53.87;52.40;55.27;;
71030;Laerm;63723;51.436;5.976;2023-05-10T00:51:16;53.76;52.18;55.11;;
71030;Laerm;63723;51.436;5.976;2023-05-10T00:51:26;53.72;52.26;55.01;;
71030;Laerm;63723;51.436;5.976;2023-05-10T00:51:37;53.82;52.48;55.06;;
71030;Laerm;63723;51.436;5.976;2023-05-10T00:51:47;53.87;52.58;54.91;;
71030;Laerm;63723;51.436;5.976;2023-05-10T00:51:57;53.75;52.44;54.94;;
71030;Laerm;63723;51.436;5.976;2023-05-10T00:52:08;53.94;52.80;55.30;;
71030;Laerm;63723;51.436;5.976;2023-05-10T00:52:19;53.95;52.34;55.22;;
71030;Laerm;63723;51.436;5.976;2023-05-10T00:52:29;53.91;52.31;55.49;;
71030;Laerm;63723;51.436;5.976;2023-05-10T00:52:39;53.84;52.56;55.73;;
71030;Laerm;63723;51.436;5.976;2023-05-10T00:52:50;53.84;52.58;55.15;;
71030;Laerm;63723;51.436;5.976;2023-05-10T00:53:00;54.03;52.30;55.58;;
71030;Laerm;63723;51.436;5.976;2023-05-10T00:53:11;54.29;52.52;55.47;;
71030;Laerm;63723;51.436;5.976;2023-05-10T00:53:22;54.25;52.79;55.82;;
71030;Laerm;63723;51.436;5.976;2023-05-10T00:53:33;54.28;52.91;55.62;;
71030;Laerm;63723;51.436;5.976;2023-05-10T00:53:47;54.33;53.04;55.64;;
71030;Laerm;63723;51.436;5.976;2023-05-10T00:54:01;54.11;52.32;55.36;;
71030;Laerm;63723;51.436;5.976;2023-05-10T00:54:11;53.83;52.58;55.33;;
71030;Laerm;63723;51.436;5.976;2023-05-10T00:54:22;53.88;52.63;55.45;;
71030;Laerm;63723;51.436;5.976;2023-05-10T00:54:32;53.86;52.43;55.34;;
71030;Laerm;63723;51.436;5.976;2023-05-10T00:54:42;53.85;52.25;55.10;;
71030;Laerm;63723;51.436;5.976;2023-05-10T00:54:53;53.91;52.05;58.19;;
71030;Laerm;63723;51.436;5.976;2023-05-10T00:55:04;53.94;52.54;55.03;;
71030;Laerm;63723;51.436;5.976;2023-05-10T00:55:15;53.82;52.32;55.43;;
71030;Laerm;63723;51.436;5.976;2023-05-10T00:55:25;53.82;52.41;55.04;;
71030;Laerm;63723;51.436;5.976;2023-05-10T00:55:36;53.86;52.31;55.57;;
71030;Laerm;63723;51.436;5.976;2023-05-10T00:55:46;53.74;52.44;55.19;;
71030;Laerm;63723;51.436;5.976;2023-05-10T00:55:57;53.81;52.36;55.21;;
71030;Laerm;63723;51.436;5.976;2023-05-10T00:56:07;53.77;52.67;55.27;;
71030;Laerm;63723;51.436;5.976;2023-05-10T00:56:18;53.76;52.36;55.05;;
71030;Laerm;63723;51.436;5.976;2023-05-10T00:56:28;53.87;52.72;55.01;;
71030;Laerm;63723;51.436;5.976;2023-05-10T00:56:40;53.76;52.15;55.04;;
71030;Laerm;63723;51.436;5.976;2023-05-10T00:56:50;53.67;52.27;55.26;;
71030;Laerm;63723;51.436;5.976;2023-05-10T00:57:01;53.73;52.03;55.27;;
71030;Laerm;63723;51.436;5.976;2023-05-10T00:57:11;53.73;52.36;57.32;;
71030;Laerm;63723;51.436;5.976;2023-05-10T00:57:21;53.66;52.28;54.94;;
71030;Laerm;63723;51.436;5.976;2023-05-10T00:57:32;53.45;51.97;54.95;;
71030;Laerm;63723;51.436;5.976;2023-05-10T00:57:42;53.66;52.02;55.05;;
71030;Laerm;63723;51.436;5.976;2023-05-10T00:57:53;53.74;52.37;55.35;;
71030;Laerm;63723;51.436;5.976;2023-05-10T00:58:04;53.86;52.02;54.87;;
71030;Laerm;63723;51.436;5.976;2023-05-10T00:58:14;53.91;52.64;55.17;;
71030;Laerm;63723;51.436;5.976;2023-05-10T00:58:25;53.96;52.53;55.38;;
71030;Laerm;63723;51.436;5.976;2023-05-10T00:58:38;54.03;52.44;55.86;;